sensor_id;sensor_type;location;lat;lon;timestamp;pressure;altitude;pressure_sealevel;temperature;humidity
81057;BME280;70563;50.084;14.468;2023-06-22T00:01:18;98946.94;;;18.10;92.19
81057;BME280;70563;50.084;14.468;2023-06-22T00:03:44;98941.44;;;18.05;91.77
81057;BME280;70563;50.084;14.468;2023-06-22T00:06:09;98948.59;;;18.23;91.05
81057;BME280;70563;50.084;14.468;2023-06-22T00:08:34;98952.97;;;18.36;90.16
81057;BME280;70563;50.084;14.468;2023-06-22T00:11:00;98950.53;;;18.46;89.76
81057;BME280;70563;50.084;14.468;2023-06-22T00:13:25;98959.97;;;18.48;89.48
81057;BME280;70563;50.084;14.468;2023-06-22T00:15:51;98962.03;;;18.46;89.59
81057;BME280;70563;50.084;14.468;2023-06-22T00:18:16;98959.94;;;18.37;89.88
81057;BME280;70563;50.084;14.468;2023-06-22T00:20:42;98951.91;;;18.37;90.04
81057;BME280;70563;50.084;14.468;2023-06-22T00:23:07;98958.81;;;18.44;89.96
81057;BME280;70563;50.084;14.468;2023-06-22T00:25:39;98962.00;;;18.35;90.04
81057;BME280;70563;50.084;14.468;2023-06-22T00:28:07;98958.16;;;18.30;89.92
81057;BME280;70563;50.084;14.468;2023-06-22T00:30:33;98957.84;;;18.39;90.01
81057;BME280;70563;50.084;14.468;2023-06-22T00:32:59;98962.59;;;18.37;90.09
81057;BME280;70563;50.084;14.468;2023-06-22T00:35:26;98960.50;;;18.39;89.46
81057;BME280;70563;50.084;14.468;2023-06-22T00:37:59;98963.09;;;18.45;89.51
81057;BME280;70563;50.084;14.468;2023-06-22T00:40:30;98965.09;;;18.50;89.14
81057;BME280;70563;50.084;14.468;2023-06-22T00:42:56;98969.69;;;18.43;89.18
81057;BME280;70563;50.084;14.468;2023-06-22T00:45:23;98951.09;;;18.36;89.59
81057;BME280;70563;50.084;14.468;2023-06-22T00:47:53;98953.72;;;18.24;89.85
81057;BME280;70563;50.084;14.468;2023-06-22T00:50:22;98954.84;;;18.17;90.20
81057;BME280;70563;50.084;14.468;2023-06-22T00:52:52;98949.34;;;18.12;90.86
81057;BME280;70563;50.084;14.468;2023-06-22T00:55:19;98946.78;;;18.05;91.08
81057;BME280;70563;50.084;14.468;2023-06-22T00:57:46;98952.44;;;17.97;91.41
81057;BME280;70563;50.084;14.468;2023-06-22T01:00:12;98948.66;;;17.86;91.92
81057;BME280;70563;50.084;14.468;2023-06-22T01:02:45;98946.06;;;17.79;92.06
81057;BME280;70563;50.084;14.468;2023-06-22T01:05:12;98938.78;;;17.87;92.47
81057;BME280;70563;50.084;14.468;2023-06-22T01:07:57;98932.19;;;17.89;92.93
81057;BME280;70563;50.084;14.468;2023-06-22T01:10:26;98931.94;;;17.91;92.84
81057;BME280;70563;50.084;14.468;2023-06-22T01:12:58;98928.03;;;17.93;92.98
81057;BME280;70563;50.084;14.468;2023-06-22T01:15:49;98922.16;;;17.85;93.10
81057;BME280;70563;50.084;14.468;2023-06-22T01:18:14;98925.41;;;17.68;92.80
81057;BME280;70563;50.084;14.468;2023-06-22T01:20:42;98922.59;;;17.63;93.50
81057;BME280;70563;50.084;14.468;2023-06-22T01:23:38;98930.00;;;17.61;94.09
81057;BME280;70563;50.084;14.468;2023-06-22T01:29:15;98923.66;;;17.62;94.29
81057;BME280;70563;50.084;14.468;2023-06-22T01:31:43;98927.03;;;17.51;93.60
81057;BME280;70563;50.084;14.468;2023-06-22T01:34:10;98925.19;;;17.51;93.80
81057;BME280;70563;50.084;14.468;2023-06-22T01:36:38;98920.13;;;17.43;93.94
81057;BME280;70563;50.084;14.468;2023-06-22T01:39:05;98917.94;;;17.40;94.01
81057;BME280;70563;50.084;14.468;2023-06-22T01:41:37;98921.03;;;17.37;94.31
81057;BME280;70563;50.084;14.468;2023-06-22T01:44:06;98917.41;;;17.32;94.83
81057;BME280;70563;50.084;14.468;2023-06-22T01:46:34;98919.31;;;17.24;94.45
81057;BME280;70563;50.084;14.468;2023-06-22T01:49:01;98922.13;;;17.29;94.36
81057;BME280;70563;50.084;14.468;2023-06-22T01:51:27;98919.41;;;17.36;94.68
81057;BME280;70563;50.084;14.468;2023-06-22T01:53:52;98924.81;;;17.29;94.69
81057;BME280;70563;50.084;14.468;2023-06-22T01:56:18;98927.75;;;17.40;94.95
81057;BME280;70563;50.084;14.468;2023-06-22T02:01:43;98933.47;;;17.25;94.84
81057;BME280;70563;50.084;14.468;2023-06-22T02:04:13;98937.56;;;17.27;95.02
81057;BME280;70563;50.084;14.468;2023-06-22T02:06:45;98940.28;;;17.21;95.29
81057;BME280;70563;50.084;14.468;2023-06-22T02:09:16;98944.00;;;17.20;95.59
81057;BME280;70563;50.084;14.468;2023-06-22T02:11:44;98942.94;;;17.21;95.49
81057;BME280;70563;50.084;14.468;2023-06-22T02:14:11;98936.94;;;17.25;95.62
81057;BME280;70563;50.084;14.468;2023-06-22T02:16:38;98949.44;;;17.50;95.12
81057;BME280;70563;50.084;14.468;2023-06-22T02:19:04;98953.16;;;17.49;94.73
81057;BME280;70563;50.084;14.468;2023-06-22T02:21:32;98944.47;;;17.53;94.69
81057;BME280;70563;50.084;14.468;2023-06-22T02:23:58;98949.72;;;17.60;94.46
81057;BME280;70563;50.084;14.468;2023-06-22T02:26:25;98951.16;;;17.63;94.18
81057;BME280;70563;50.084;14.468;2023-06-22T02:28:50;98951.00;;;17.58;94.04
81057;BME280;70563;50.084;14.468;2023-06-22T02:31:16;98947.34;;;17.52;94.02
81057;BME280;70563;50.084;14.468;2023-06-22T02:33:41;98950.63;;;17.54;93.60
81057;BME280;70563;50.084;14.468;2023-06-22T02:36:07;98952.41;;;17.60;93.58
81057;BME280;70563;50.084;14.468;2023-06-22T02:38:34;98953.88;;;17.56;93.76
81057;BME280;70563;50.084;14.468;2023-06-22T02:41:01;98946.16;;;17.48;94.05
81057;BME280;70563;50.084;14.468;2023-06-22T02:43:27;98957.06;;;17.65;93.37
81057;BME280;70563;50.084;14.468;2023-06-22T02:45:52;98958.66;;;17.54;93.61
81057;BME280;70563;50.084;14.468;2023-06-22T02:48:18;98948.78;;;17.54;93.87
81057;BME280;70563;50.084;14.468;2023-06-22T02:50:43;98958.94;;;17.46;94.01
81057;BME280;70563;50.084;14.468;2023-06-22T02:53:09;98950.41;;;17.37;94.08
81057;BME280;70563;50.084;14.468;2023-06-22T02:55:34;98949.31;;;17.45;94.46
81057;BME280;70563;50.084;14.468;2023-06-22T02:57:59;98946.63;;;17.45;94.34
81057;BME280;70563;50.084;14.468;2023-06-22T03:00:30;98950.31;;;17.44;94.83
81057;BME280;70563;50.084;14.468;2023-06-22T03:02:56;98939.63;;;17.44;94.54
81057;BME280;70563;50.084;14.468;2023-06-22T03:05:22;98942.59;;;17.36;94.00
81057;BME280;70563;50.084;14.468;2023-06-22T03:07:48;98939.44;;;17.45;94.48
81057;BME280;70563;50.084;14.468;2023-06-22T03:10:14;98940.47;;;17.44;94.37
81057;BME280;70563;50.084;14.468;2023-06-22T03:12:40;98943.22;;;17.56;93.10
81057;BME280;70563;50.084;14.468;2023-06-22T03:15:07;98938.38;;;17.46;93.97
81057;BME280;70563;50.084;14.468;2023-06-22T03:17:36;98942.47;;;17.49;94.15
81057;BME280;70563;50.084;14.468;2023-06-22T03:20:04;98940.78;;;17.54;93.25
81057;BME280;70563;50.084;14.468;2023-06-22T03:22:40;98944.09;;;17.50;93.46
81057;BME280;70563;50.084;14.468;2023-06-22T03:25:07;98957.47;;;17.50;93.46
81057;BME280;70563;50.084;14.468;2023-06-22T03:27:39;98954.41;;;17.46;93.60
81057;BME280;70563;50.084;14.468;2023-06-22T03:30:06;98958.50;;;17.49;94.15
81057;BME280;70563;50.084;14.468;2023-06-22T03:32:32;98960.50;;;17.53;93.61
81057;BME280;70563;50.084;14.468;2023-06-22T03:34:57;98951.69;;;17.53;93.71
81057;BME280;70563;50.084;14.468;2023-06-22T03:37:25;98952.25;;;17.55;93.29
81057;BME280;70563;50.084;14.468;2023-06-22T03:39:51;98957.06;;;17.65;92.98
81057;BME280;70563;50.084;14.468;2023-06-22T03:42:16;98953.75;;;17.69;93.15
81057;BME280;70563;50.084;14.468;2023-06-22T03:44:41;98954.75;;;17.75;92.99
81057;BME280;70563;50.084;14.468;2023-06-22T03:47:07;98959.78;;;17.83;92.82
81057;BME280;70563;50.084;14.468;2023-06-22T03:49:33;98963.06;;;17.85;92.42
81057;BME280;70563;50.084;14.468;2023-06-22T03:52:00;98958.09;;;17.89;92.04
81057;BME280;70563;50.084;14.468;2023-06-22T03:54:25;98945.91;;;17.93;92.32
81057;BME280;70563;50.084;14.468;2023-06-22T03:56:51;98949.16;;;17.95;92.17
81057;BME280;70563;50.084;14.468;2023-06-22T03:59:16;98954.19;;;18.03;91.60
81057;BME280;70563;50.084;14.468;2023-06-22T04:01:42;98946.31;;;18.08;91.75
81057;BME280;70563;50.084;14.468;2023-06-22T04:04:07;98942.44;;;18.22;91.24
81057;BME280;70563;50.084;14.468;2023-06-22T04:06:32;98945.16;;;18.34;91.21
81057;BME280;70563;50.084;14.468;2023-06-22T04:08:59;98942.97;;;18.43;91.00
81057;BME280;70563;50.084;14.468;2023-06-22T04:11:25;98939.16;;;18.50;90.16
81057;BME280;70563;50.084;14.468;2023-06-22T04:13:51;98933.72;;;18.57;88.89
81057;BME280;70563;50.084;14.468;2023-06-22T04:16:16;98936.06;;;18.65;88.83
81057;BME280;70563;50.084;14.468;2023-06-22T04:18:42;98932.50;;;18.71;88.67
81057;BME280;70563;50.084;14.468;2023-06-22T04:21:07;98943.56;;;18.87;88.60
81057;BME280;70563;50.084;14.468;2023-06-22T04:23:32;98938.97;;;19.17;86.81
81057;BME280;70563;50.084;14.468;2023-06-22T04:25:58;98922.97;;;19.34;86.38
81057;BME280;70563;50.084;14.468;2023-06-22T04:28:24;98927.16;;;19.53;84.75
81057;BME280;70563;50.084;14.468;2023-06-22T04:30:50;98933.31;;;19.54;84.61
81057;BME280;70563;50.084;14.468;2023-06-22T04:33:16;98935.91;;;19.49;84.88
81057;BME280;70563;50.084;14.468;2023-06-22T04:35:44;98940.78;;;19.52;84.74
81057;BME280;70563;50.084;14.468;2023-06-22T04:38:12;98938.13;;;19.52;84.42
81057;BME280;70563;50.084;14.468;2023-06-22T04:40:39;98942.53;;;19.58;84.52
81057;BME280;70563;50.084;14.468;2023-06-22T04:43:04;98951.59;;;19.69;84.01
81057;BME280;70563;50.084;14.468;2023-06-22T04:45:31;98944.25;;;19.76;83.80
81057;BME280;70563;50.084;14.468;2023-06-22T04:47:56;98953.81;;;19.84;82.90
81057;BME280;70563;50.084;14.468;2023-06-22T04:50:22;98954.81;;;19.94;82.94
81057;BME280;70563;50.084;14.468;2023-06-22T04:52:49;98959.91;;;20.08;82.14
81057;BME280;70563;50.084;14.468;2023-06-22T04:55:14;98948.59;;;20.17;80.96
81057;BME280;70563;50.084;14.468;2023-06-22T04:57:46;98959.34;;;20.34;80.39
81057;BME280;70563;50.084;14.468;2023-06-22T05:00:23;98967.31;;;20.46;80.11
81057;BME280;70563;50.084;14.468;2023-06-22T05:02:48;98962.84;;;20.63;79.08
81057;BME280;70563;50.084;14.468;2023-06-22T05:05:14;98967.91;;;20.76;78.53
81057;BME280;70563;50.084;14.468;2023-06-22T05:07:42;98968.41;;;20.90;77.88
81057;BME280;70563;50.084;14.468;2023-06-22T05:10:10;98969.84;;;20.98;77.65
81057;BME280;70563;50.084;14.468;2023-06-22T05:12:37;98968.97;;;21.09;76.79
81057;BME280;70563;50.084;14.468;2023-06-22T05:15:03;98973.94;;;21.17;76.32
81057;BME280;70563;50.084;14.468;2023-06-22T05:17:29;98969.94;;;21.37;75.56
81057;BME280;70563;50.084;14.468;2023-06-22T05:19:54;98973.81;;;21.63;74.35
81057;BME280;70563;50.084;14.468;2023-06-22T05:22:20;98977.97;;;22.14;72.04
81057;BME280;70563;50.084;14.468;2023-06-22T05:24:45;98979.63;;;22.69;69.44
81057;BME280;70563;50.084;14.468;2023-06-22T05:27:11;98984.84;;;23.40;67.23
81057;BME280;70563;50.084;14.468;2023-06-22T05:29:37;98982.69;;;23.85;64.99
81057;BME280;70563;50.084;14.468;2023-06-22T05:32:03;98977.34;;;24.00;64.35
81057;BME280;70563;50.084;14.468;2023-06-22T05:34:29;98989.13;;;24.51;62.47
81057;BME280;70563;50.084;14.468;2023-06-22T05:36:54;98996.75;;;24.80;61.00
81057;BME280;70563;50.084;14.468;2023-06-22T05:39:19;99003.25;;;25.15;59.07
81057;BME280;70563;50.084;14.468;2023-06-22T05:41:45;99001.84;;;25.58;58.26
81057;BME280;70563;50.084;14.468;2023-06-22T05:44:11;99009.63;;;25.90;57.13
81057;BME280;70563;50.084;14.468;2023-06-22T05:46:37;99014.06;;;26.36;55.79
81057;BME280;70563;50.084;14.468;2023-06-22T05:49:02;99023.09;;;26.70;54.46
81057;BME280;70563;50.084;14.468;2023-06-22T05:51:27;99026.63;;;27.05;53.10
81057;BME280;70563;50.084;14.468;2023-06-22T05:53:53;99020.16;;;27.01;53.18
81057;BME280;70563;50.084;14.468;2023-06-22T05:56:18;99021.81;;;26.97;52.96
81057;BME280;70563;50.084;14.468;2023-06-22T05:58:44;99016.28;;;27.17;52.67
81057;BME280;70563;50.084;14.468;2023-06-22T06:01:09;99013.59;;;27.70;51.22
81057;BME280;70563;50.084;14.468;2023-06-22T06:03:35;99012.06;;;28.12;49.92
81057;BME280;70563;50.084;14.468;2023-06-22T06:06:07;99019.56;;;28.63;48.13
81057;BME280;70563;50.084;14.468;2023-06-22T06:08:32;99014.63;;;28.22;49.01
81057;BME280;70563;50.084;14.468;2023-06-22T06:10:58;99019.25;;;28.65;48.29
81057;BME280;70563;50.084;14.468;2023-06-22T06:13:23;99021.09;;;28.50;48.35
81057;BME280;70563;50.084;14.468;2023-06-22T06:15:48;99027.19;;;28.61;48.14
81057;BME280;70563;50.084;14.468;2023-06-22T06:18:16;99027.00;;;28.34;49.50
81057;BME280;70563;50.084;14.468;2023-06-22T06:20:42;99021.78;;;27.65;50.90
81057;BME280;70563;50.084;14.468;2023-06-22T06:23:07;99013.75;;;27.26;51.94
81057;BME280;70563;50.084;14.468;2023-06-22T06:25:33;99019.09;;;28.56;48.93
81057;BME280;70563;50.084;14.468;2023-06-22T06:27:58;99024.31;;;28.90;47.86
81057;BME280;70563;50.084;14.468;2023-06-22T06:30:24;99010.75;;;29.23;47.03
81057;BME280;70563;50.084;14.468;2023-06-22T06:32:50;99017.22;;;29.60;46.57
81057;BME280;70563;50.084;14.468;2023-06-22T06:35:15;99013.75;;;30.14;44.61
81057;BME280;70563;50.084;14.468;2023-06-22T06:37:43;99002.00;;;30.78;42.72
81057;BME280;70563;50.084;14.468;2023-06-22T06:40:10;99004.31;;;30.70;42.90
81057;BME280;70563;50.084;14.468;2023-06-22T06:42:49;99006.94;;;30.26;43.92
81057;BME280;70563;50.084;14.468;2023-06-22T06:45:19;99001.09;;;31.05;41.84
81057;BME280;70563;50.084;14.468;2023-06-22T06:47:46;99001.50;;;30.98;42.11
81057;BME280;70563;50.084;14.468;2023-06-22T06:50:11;98998.16;;;31.86;39.92
81057;BME280;70563;50.084;14.468;2023-06-22T06:52:37;99008.88;;;31.82;40.21
81057;BME280;70563;50.084;14.468;2023-06-22T06:55:03;98998.31;;;32.38;38.33
81057;BME280;70563;50.084;14.468;2023-06-22T06:57:33;98993.03;;;32.50;37.96
81057;BME280;70563;50.084;14.468;2023-06-22T06:59:59;98996.88;;;32.66;37.29
81057;BME280;70563;50.084;14.468;2023-06-22T07:02:25;99000.44;;;33.02;36.18
81057;BME280;70563;50.084;14.468;2023-06-22T07:04:53;98996.41;;;33.08;36.37
81057;BME280;70563;50.084;14.468;2023-06-22T07:07:20;98995.59;;;32.55;37.03
81057;BME280;70563;50.084;14.468;2023-06-22T07:09:45;98993.19;;;32.88;37.06
81057;BME280;70563;50.084;14.468;2023-06-22T07:12:11;98985.69;;;33.50;35.75
81057;BME280;70563;50.084;14.468;2023-06-22T07:14:36;98969.53;;;33.65;34.92
81057;BME280;70563;50.084;14.468;2023-06-22T07:17:02;98975.63;;;32.81;35.92
81057;BME280;70563;50.084;14.468;2023-06-22T07:19:27;98972.53;;;33.34;35.62
81057;BME280;70563;50.084;14.468;2023-06-22T07:21:54;98965.53;;;34.22;33.94
81057;BME280;70563;50.084;14.468;2023-06-22T07:24:22;98976.38;;;33.25;35.62
81057;BME280;70563;50.084;14.468;2023-06-22T07:26:48;98965.69;;;33.96;34.61
81057;BME280;70563;50.084;14.468;2023-06-22T07:29:18;98963.97;;;33.36;35.40
81057;BME280;70563;50.084;14.468;2023-06-22T07:31:46;98964.94;;;34.58;32.76
81057;BME280;70563;50.084;14.468;2023-06-22T07:34:11;98964.47;;;34.77;32.68
81057;BME280;70563;50.084;14.468;2023-06-22T07:36:37;98960.75;;;34.94;32.11
81057;BME280;70563;50.084;14.468;2023-06-22T07:39:03;98956.59;;;34.55;32.88
81057;BME280;70563;50.084;14.468;2023-06-22T07:41:29;98951.16;;;34.25;34.05
81057;BME280;70563;50.084;14.468;2023-06-22T07:43:54;98952.34;;;35.57;31.62
81057;BME280;70563;50.084;14.468;2023-06-22T07:46:20;98953.81;;;35.66;31.31
81057;BME280;70563;50.084;14.468;2023-06-22T07:48:45;98950.50;;;36.10;30.39
81057;BME280;70563;50.084;14.468;2023-06-22T07:51:11;98943.22;;;36.30;29.91
81057;BME280;70563;50.084;14.468;2023-06-22T07:53:41;98943.22;;;36.30;30.62
81057;BME280;70563;50.084;14.468;2023-06-22T07:56:06;98945.69;;;36.59;29.92
81057;BME280;70563;50.084;14.468;2023-06-22T07:58:32;98930.81;;;36.48;29.67
81057;BME280;70563;50.084;14.468;2023-06-22T08:00:58;98928.44;;;37.19;28.94
81057;BME280;70563;50.084;14.468;2023-06-22T08:03:24;98928.03;;;37.48;28.51
81057;BME280;70563;50.084;14.468;2023-06-22T08:05:49;98910.59;;;36.28;30.21
81057;BME280;70563;50.084;14.468;2023-06-22T08:08:15;98916.88;;;35.64;30.65
81057;BME280;70563;50.084;14.468;2023-06-22T08:10:40;98906.97;;;36.52;29.38
81057;BME280;70563;50.084;14.468;2023-06-22T08:13:07;98906.66;;;36.41;29.04
81057;BME280;70563;50.084;14.468;2023-06-22T08:15:33;98911.28;;;37.25;28.08
81057;BME280;70563;50.084;14.468;2023-06-22T08:17:58;98908.03;;;36.07;29.59
81057;BME280;70563;50.084;14.468;2023-06-22T08:20:26;98901.16;;;35.28;31.24
81057;BME280;70563;50.084;14.468;2023-06-22T08:22:53;98901.25;;;35.07;31.66
81057;BME280;70563;50.084;14.468;2023-06-22T08:25:19;98902.19;;;35.11;31.47
81057;BME280;70563;50.084;14.468;2023-06-22T08:27:45;98894.88;;;34.49;32.04
81057;BME280;70563;50.084;14.468;2023-06-22T08:30:12;98892.59;;;34.30;33.12
81057;BME280;70563;50.084;14.468;2023-06-22T08:32:38;98895.56;;;34.25;32.95
81057;BME280;70563;50.084;14.468;2023-06-22T08:35:03;98891.00;;;35.77;30.85
81057;BME280;70563;50.084;14.468;2023-06-22T08:37:29;98882.16;;;35.84;30.22
81057;BME280;70563;50.084;14.468;2023-06-22T08:40:01;98883.38;;;36.79;28.05
81057;BME280;70563;50.084;14.468;2023-06-22T08:42:29;98883.22;;;36.32;29.19
81057;BME280;70563;50.084;14.468;2023-06-22T08:44:55;98883.44;;;36.27;28.85
81057;BME280;70563;50.084;14.468;2023-06-22T08:47:20;98882.41;;;35.17;30.49
81057;BME280;70563;50.084;14.468;2023-06-22T08:49:46;98877.28;;;35.28;30.57
81057;BME280;70563;50.084;14.468;2023-06-22T08:52:12;98877.81;;;37.07;27.71
81057;BME280;70563;50.084;14.468;2023-06-22T08:54:38;98890.16;;;37.29;27.59
81057;BME280;70563;50.084;14.468;2023-06-22T08:57:03;98878.53;;;38.42;25.87
81057;BME280;70563;50.084;14.468;2023-06-22T08:59:29;98879.94;;;38.32;26.00
81057;BME280;70563;50.084;14.468;2023-06-22T09:01:54;98873.22;;;38.95;25.10
81057;BME280;70563;50.084;14.468;2023-06-22T09:04:20;98875.22;;;38.75;25.47
81057;BME280;70563;50.084;14.468;2023-06-22T09:06:48;98874.09;;;38.56;24.73
81057;BME280;70563;50.084;14.468;2023-06-22T09:09:16;98868.75;;;38.44;25.13
81057;BME280;70563;50.084;14.468;2023-06-22T09:11:42;98867.44;;;37.83;26.62
81057;BME280;70563;50.084;14.468;2023-06-22T09:14:08;98864.00;;;38.06;25.86
81057;BME280;70563;50.084;14.468;2023-06-22T09:16:34;98867.66;;;39.14;24.24
81057;BME280;70563;50.084;14.468;2023-06-22T09:18:59;98859.88;;;38.15;26.17
81057;BME280;70563;50.084;14.468;2023-06-22T09:21:24;98870.31;;;39.30;24.35
81057;BME280;70563;50.084;14.468;2023-06-22T09:23:50;98866.25;;;39.50;24.35
81057;BME280;70563;50.084;14.468;2023-06-22T09:26:19;98862.69;;;39.23;24.01
81057;BME280;70563;50.084;14.468;2023-06-22T09:28:45;98857.00;;;39.12;24.19
81057;BME280;70563;50.084;14.468;2023-06-22T09:31:10;98840.88;;;39.41;23.75
81057;BME280;70563;50.084;14.468;2023-06-22T09:33:36;98849.75;;;39.80;23.60
81057;BME280;70563;50.084;14.468;2023-06-22T09:36:04;98839.13;;;39.29;23.85
81057;BME280;70563;50.084;14.468;2023-06-22T09:38:30;98838.69;;;39.54;23.47
81057;BME280;70563;50.084;14.468;2023-06-22T09:40:55;98833.19;;;40.10;23.07
81057;BME280;70563;50.084;14.468;2023-06-22T09:43:21;98837.47;;;40.38;22.43
81057;BME280;70563;50.084;14.468;2023-06-22T09:45:46;98846.13;;;40.36;22.09
81057;BME280;70563;50.084;14.468;2023-06-22T09:48:12;98838.13;;;39.68;24.08
81057;BME280;70563;50.084;14.468;2023-06-22T09:50:37;98850.16;;;41.28;21.71
81057;BME280;70563;50.084;14.468;2023-06-22T09:53:02;98841.06;;;39.52;23.46
81057;BME280;70563;50.084;14.468;2023-06-22T09:55:28;98842.13;;;39.70;23.10
81057;BME280;70563;50.084;14.468;2023-06-22T09:57:53;98841.44;;;40.78;21.53
81057;BME280;70563;50.084;14.468;2023-06-22T10:00:20;98839.34;;;41.64;20.34
81057;BME280;70563;50.084;14.468;2023-06-22T10:02:47;98835.41;;;41.13;21.24
81057;BME280;70563;50.084;14.468;2023-06-22T10:05:12;98829.47;;;41.07;21.25
81057;BME280;70563;50.084;14.468;2023-06-22T10:07:37;98832.56;;;41.57;20.66
81057;BME280;70563;50.084;14.468;2023-06-22T10:10:09;98822.53;;;40.50;21.70
81057;BME280;70563;50.084;14.468;2023-06-22T10:12:34;98820.25;;;40.96;21.98
81057;BME280;70563;50.084;14.468;2023-06-22T10:15:00;98814.84;;;40.29;21.98
81057;BME280;70563;50.084;14.468;2023-06-22T10:17:25;98819.78;;;40.91;21.34
81057;BME280;70563;50.084;14.468;2023-06-22T10:19:51;98829.41;;;40.63;21.88
81057;BME280;70563;50.084;14.468;2023-06-22T10:22:16;98820.47;;;40.40;21.57
81057;BME280;70563;50.084;14.468;2023-06-22T10:24:41;98814.34;;;40.23;21.98
81057;BME280;70563;50.084;14.468;2023-06-22T10:27:11;98816.06;;;39.45;23.28
81057;BME280;70563;50.084;14.468;2023-06-22T10:29:37;98819.69;;;40.80;21.40
81057;BME280;70563;50.084;14.468;2023-06-22T10:32:03;98808.00;;;42.43;19.87
81057;BME280;70563;50.084;14.468;2023-06-22T10:34:28;98803.63;;;42.39;19.58
81057;BME280;70563;50.084;14.468;2023-06-22T10:36:53;98807.63;;;42.59;19.92
81057;BME280;70563;50.084;14.468;2023-06-22T10:39:19;98805.94;;;39.26;24.04
81057;BME280;70563;50.084;14.468;2023-06-22T10:41:44;98814.72;;;40.96;21.43
81057;BME280;70563;50.084;14.468;2023-06-22T10:44:10;98805.16;;;40.90;21.36
81057;BME280;70563;50.084;14.468;2023-06-22T10:46:36;98804.47;;;38.63;24.10
81057;BME280;70563;50.084;14.468;2023-06-22T10:49:01;98794.03;;;37.56;26.43
81057;BME280;70563;50.084;14.468;2023-06-22T10:51:27;98797.91;;;39.17;23.89
81057;BME280;70563;50.084;14.468;2023-06-22T10:53:53;98784.69;;;39.56;23.77
81057;BME280;70563;50.084;14.468;2023-06-22T10:56:18;98789.56;;;39.40;24.15
81057;BME280;70563;50.084;14.468;2023-06-22T10:58:45;98780.19;;;37.87;26.12
81057;BME280;70563;50.084;14.468;2023-06-22T11:01:11;98787.13;;;38.62;25.28
81057;BME280;70563;50.084;14.468;2023-06-22T11:03:36;98784.97;;;40.86;22.08
81057;BME280;70563;50.084;14.468;2023-06-22T11:06:02;98785.19;;;41.15;21.34
81057;BME280;70563;50.084;14.468;2023-06-22T11:08:27;98780.25;;;40.49;22.02
81057;BME280;70563;50.084;14.468;2023-06-22T11:10:52;98780.63;;;41.40;20.61
81057;BME280;70563;50.084;14.468;2023-06-22T11:13:18;98777.22;;;41.02;21.37
81057;BME280;70563;50.084;14.468;2023-06-22T11:15:43;98759.09;;;41.85;20.15
81057;BME280;70563;50.084;14.468;2023-06-22T11:18:09;98772.72;;;40.91;21.50
81057;BME280;70563;50.084;14.468;2023-06-22T11:20:34;98758.28;;;41.15;21.12
81057;BME280;70563;50.084;14.468;2023-06-22T11:23:03;98759.91;;;42.00;20.24
81057;BME280;70563;50.084;14.468;2023-06-22T11:25:29;98752.75;;;41.11;21.70
81057;BME280;70563;50.084;14.468;2023-06-22T11:27:54;98752.94;;;39.17;23.87
81057;BME280;70563;50.084;14.468;2023-06-22T11:30:19;98750.06;;;37.44;26.76
81057;BME280;70563;50.084;14.468;2023-06-22T11:32:45;98747.94;;;38.53;24.90
81057;BME280;70563;50.084;14.468;2023-06-22T11:35:10;98741.72;;;39.62;23.51
81057;BME280;70563;50.084;14.468;2023-06-22T11:37:36;98749.34;;;40.81;22.27
81057;BME280;70563;50.084;14.468;2023-06-22T11:40:01;98740.06;;;41.80;20.67
81057;BME280;70563;50.084;14.468;2023-06-22T11:42:29;98729.91;;;41.29;21.36
81057;BME280;70563;50.084;14.468;2023-06-22T11:44:55;98716.06;;;42.73;19.45
81057;BME280;70563;50.084;14.468;2023-06-22T11:47:20;98722.41;;;42.88;19.34
81057;BME280;70563;50.084;14.468;2023-06-22T11:49:46;98715.47;;;40.98;21.69
81057;BME280;70563;50.084;14.468;2023-06-22T11:52:11;98713.28;;;39.62;23.55
81057;BME280;70563;50.084;14.468;2023-06-22T11:54:37;98712.50;;;40.29;23.36
81057;BME280;70563;50.084;14.468;2023-06-22T11:57:03;98713.88;;;40.97;22.59
81057;BME280;70563;50.084;14.468;2023-06-22T11:59:29;98710.56;;;39.96;23.23
81057;BME280;70563;50.084;14.468;2023-06-22T12:01:54;98708.91;;;39.57;24.00
81057;BME280;70563;50.084;14.468;2023-06-22T12:04:20;98719.75;;;39.13;24.13
81057;BME280;70563;50.084;14.468;2023-06-22T12:06:46;98712.66;;;39.72;23.70
81057;BME280;70563;50.084;14.468;2023-06-22T12:09:12;98712.09;;;39.93;23.18
81057;BME280;70563;50.084;14.468;2023-06-22T12:11:39;98708.63;;;39.66;23.30
81057;BME280;70563;50.084;14.468;2023-06-22T12:14:04;98710.22;;;39.10;24.51
81057;BME280;70563;50.084;14.468;2023-06-22T12:16:29;98701.00;;;36.47;28.23
81057;BME280;70563;50.084;14.468;2023-06-22T12:18:55;98690.09;;;37.53;27.12
81057;BME280;70563;50.084;14.468;2023-06-22T12:21:20;98701.03;;;38.30;25.72
81057;BME280;70563;50.084;14.468;2023-06-22T12:23:46;98703.00;;;39.02;24.81
81057;BME280;70563;50.084;14.468;2023-06-22T12:26:11;98693.66;;;39.37;24.11
81057;BME280;70563;50.084;14.468;2023-06-22T12:28:36;98692.72;;;39.59;23.79
81057;BME280;70563;50.084;14.468;2023-06-22T12:31:02;98697.25;;;40.08;23.61
81057;BME280;70563;50.084;14.468;2023-06-22T12:33:27;98685.03;;;38.16;23.65
81057;BME280;70563;50.084;14.468;2023-06-22T12:35:52;98676.53;;;37.83;24.92
81057;BME280;70563;50.084;14.468;2023-06-22T12:38:18;98662.72;;;38.02;24.52
81057;BME280;70563;50.084;14.468;2023-06-22T12:40:43;98669.06;;;38.49;25.39
81057;BME280;70563;50.084;14.468;2023-06-22T12:43:08;98657.09;;;37.56;24.04
81057;BME280;70563;50.084;14.468;2023-06-22T12:45:34;98652.97;;;37.27;24.26
81057;BME280;70563;50.084;14.468;2023-06-22T12:48:00;98652.91;;;36.73;25.77
81057;BME280;70563;50.084;14.468;2023-06-22T12:50:26;98649.94;;;37.52;23.79
81057;BME280;70563;50.084;14.468;2023-06-22T12:52:51;98655.81;;;37.31;23.51